Fesco Vladimir — 5BSL2 — position and weather

sailwx.info

Track history (hours):
 
Tides and Currents Weather Stations Pressure Air Temp Water Temp Dewpoint Dewpoint Depression Visibility Wind Speed Wind Dir Waves Ship Positions

Fesco Vladimir

Last reported at 2018-Jan-22 10:36 UTC. Time now 2018-Jan-22 13:49 UTC.
Position N 55°22' E 011°02'.

Length 184 m; draft 9.6 m.

Type: Ship (hazmat cat A). MMSI: 209777000.

Date/timePositionNaut miles runAvg speedWind from/ knotsBaromVisibWave heightAir tempDewpointWater temp
2018-Jan-22 10:36N 55°22' E 011°02'114.6
2018-Jan-22 10:30N 55°20' E 011°02'713.6
2018-Jan-22 10:00N 55°14' E 011°06'713.6
2018-Jan-22 09:30N 55°07' E 011°03'713.9
2018-Jan-22 09:00N 55°00' E 011°02'713.7
2018-Jan-22 08:31N 54°55' E 010°54'714.2
2018-Jan-22 08:01N 54°48' E 010°52'713.2
2018-Jan-22 07:30N 54°42' E 010°55'713.6
2018-Jan-22 07:00N 54°38' E 011°05'713.3
2018-Jan-22 06:30N 54°35' E 011°15'713.7
2018-Jan-22 06:00N 54°32' E 011°26'713.3
2018-Jan-22 05:30N 54°29' E 011°36'713.0
2018-Jan-22 05:00N 54°26' E 011°46'612.8
2018-Jan-22 04:30N 54°26' E 011°57'612.9
2018-Jan-22 04:00N 54°26' E 012°08'510.4
2018-Jan-22 03:30N 54°30' E 012°13'711.8
2018-Jan-22 02:56N 54°37' E 012°17'5812.1
2018-Jan-21 22:11N 55°01' E 013°48'312.2
2018-Jan-21 21:58N 55°02' E 013°52'812.4
2018-Jan-21 21:18N 55°05' E 014°06'412.7
2018-Jan-21 20:59N 55°08' E 014°10'612.9
2018-Jan-21 20:30N 55°13' E 014°17'612.9
2018-Jan-21 20:00N 55°18' E 014°24'612.8
2018-Jan-21 19:30N 55°23' E 014°31'712.6
2018-Jan-21 18:58N 55°28' E 014°40'613.0
2018-Jan-21 18:30N 55°31' E 014°49'612.9
2018-Jan-21 18:00N 55°34' E 014°59'612.8
2018-Jan-21 17:30N 55°37' E 015°08'712.8
2018-Jan-21 16:59N 55°40' E 015°19'612.9
2018-Jan-21 16:30N 55°44' E 015°28'613.0
2018-Jan-21 16:00N 55°47' E 015°38'613.0
2018-Jan-21 15:30N 55°50' E 015°48'612.9
2018-Jan-21 15:00N 55°53' E 015°58'612.9
2018-Jan-21 14:30N 55°57' E 016°08'612.9
2018-Jan-21 14:00N 55°60' E 016°18'713.2
2018-Jan-21 13:30N 56°03' E 016°28'713.4
2018-Jan-21 13:00N 56°06' E 016°39'713.3
2018-Jan-21 12:30N 56°10' E 016°49'713.1
2018-Jan-21 12:00N 56°14' E 016°58'27412.9
2018-Jan-20 14:43N 59°34' E 022°51'313.4
2018-Jan-20 14:30N 59°35' E 022°56'713.3
2018-Jan-20 14:00N 59°37' E 023°09'713.6
2018-Jan-20 13:30N 59°38' E 023°22'713.8
2018-Jan-20 13:00N 59°40' E 023°35'713.4
2018-Jan-20 12:30N 59°42' E 023°48'713.3
2018-Jan-20 12:00N 59°44' E 024°01'713.3
2018-Jan-20 11:30N 59°45' E 024°13'713.4
2018-Jan-20 11:01N 59°47' E 024°26'713.5
2018-Jan-20 10:30N 59°48' E 024°39'713.5
2018-Jan-20 10:01N 59°50' E 024°52'713.4
2018-Jan-20 09:30N 59°51' E 025°05'3213.4
2018-Jan-20 07:07N 59°58' E 026°08'213.9
2018-Jan-20 06:58N 59°58' E 026°12'613.4
2018-Jan-20 06:30N 59°60' E 026°24'713.2
2018-Jan-20 06:00N 60°01' E 026°37'713.3
2018-Jan-20 05:30N 60°00' E 026°50'713.2
2018-Jan-20 05:00N 59°59' E 027°03'713.5
2018-Jan-20 04:30N 60°03' E 027°14'713.5
2018-Jan-20 04:00N 60°07' E 027°26'713.1
2018-Jan-20 03:30N 60°10' E 027°37'612.2
2018-Jan-20 03:00N 60°12' E 027°49'713.2
2018-Jan-20 02:30N 60°10' E 028°02'613.0
2018-Jan-20 02:00N 60°08' E 028°14'612.8
2018-Jan-20 01:30N 60°05' E 028°25'612.6
2018-Jan-20 01:00N 60°03' E 028°37'713.1
2018-Jan-20 00:30N 60°03' E 028°50'713.2
2018-Jan-20 00:00N 60°02' E 029°04'713.5
2018-Jan-19 23:28N 60°02' E 029°18'511.6
2018-Jan-19 23:00N 60°02' E 029°29'611.3
2018-Jan-19 22:30N 59°60' E 029°40'5 9.2
2018-Jan-19 22:00N 59°58' E 029°48'611.5
2018-Jan-19 21:30N 59°56' E 029°58'510.6
2018-Jan-19 21:00N 59°54' E 030°08'2 4.7
2018-Jan-19 20:29N 59°52' E 030°12'0 0.0
2018-Jan-19 19:58N 59°52' E 030°12'0 0.0
2018-Jan-19 19:29N 59°52' E 030°12'0 0.0
2018-Jan-19 18:58N 59°52' E 030°12'0 0.0
2018-Jan-19 18:28N 59°52' E 030°12'0 0.0
2018-Jan-19 17:58N 59°52' E 030°12'0 0.0
2018-Jan-19 17:23N 59°52' E 030°12'0 0.0
2018-Jan-19 16:56N 59°52' E 030°12'0 0.0
2018-Jan-19 16:28N 59°52' E 030°12'0 0.0
2018-Jan-19 15:58N 59°52' E 030°12'0 0.0
2018-Jan-19 15:28N 59°52' E 030°12'0 0.0
2018-Jan-19 14:58N 59°52' E 030°12'0 0.0
2018-Jan-19 14:28N 59°52' E 030°12'0 0.0
2018-Jan-19 13:59N 59°52' E 030°12'0 0.0
2018-Jan-19 13:25N 59°52' E 030°12'0 0.0
2018-Jan-19 12:58N 59°52' E 030°12'0 0.0
2018-Jan-19 12:28N 59°52' E 030°12'0 0.0
2018-Jan-19 12:00N 59°52' E 030°12'0 0.0
2018-Jan-19 11:30N 59°52' E 030°12'0 0.0
2018-Jan-19 11:00N 59°52' E 030°12'0 0.0
2018-Jan-19 10:30N 59°52' E 030°12'0 0.0
2018-Jan-19 10:00N 59°52' E 030°12'0 1.0
2018-Jan-19 09:30N 59°53' E 030°12'0 0.1
2018-Jan-19 08:58N 59°53' E 030°12'0 0.0
2018-Jan-19 08:28N 59°53' E 030°12'0 0.0
2018-Jan-19 07:58N 59°53' E 030°12'0 0.0
2018-Jan-19 07:28N 59°53' E 030°12'0 0.0
2018-Jan-19 06:58N 59°53' E 030°12'0 0.0
2018-Jan-19 06:28N 59°53' E 030°12'0 0.0
2018-Jan-19 05:58N 59°53' E 030°12'0 0.0
2018-Jan-19 05:28N 59°53' E 030°12'0 0.0
2018-Jan-19 04:58N 59°53' E 030°12'0 0.0
2018-Jan-19 04:28N 59°53' E 030°12'0 0.0
2018-Jan-19 03:58N 59°53' E 030°12'0 0.0
2018-Jan-19 03:28N 59°53' E 030°12'0 0.0
2018-Jan-19 02:58N 59°53' E 030°12'0 0.0
2018-Jan-19 02:28N 59°53' E 030°12'0 0.0
2018-Jan-19 01:58N 59°53' E 030°12'0 0.0
2018-Jan-19 01:28N 59°53' E 030°12'0 0.0
2018-Jan-19 00:58N 59°53' E 030°12'0 0.0
2018-Jan-19 00:28N 59°53' E 030°12'0 0.0
2018-Jan-18 23:58N 59°53' E 030°12'0 0.0
2018-Jan-18 23:28N 59°53' E 030°12'0 0.0
2018-Jan-18 22:58N 59°53' E 030°12'0 0.0
2018-Jan-18 22:29N 59°53' E 030°12'0 0.0
2018-Jan-18 21:59N 59°53' E 030°12'0 0.0
2018-Jan-18 21:29N 59°53' E 030°12'0 0.0
2018-Jan-18 20:59N 59°53' E 030°12'0 0.0
2018-Jan-18 20:29N 59°53' E 030°12'0 0.0
2018-Jan-18 19:59N 59°53' E 030°12'0 0.0
2018-Jan-18 19:29N 59°53' E 030°12'0 0.0
2018-Jan-18 18:59N 59°53' E 030°12'0 0.0
2018-Jan-18 18:29N 59°53' E 030°12'0 0.0
2018-Jan-18 17:59N 59°53' E 030°12'0 0.0
2018-Jan-18 17:29N 59°53' E 030°12'0 0.0
2018-Jan-18 16:59N 59°53' E 030°12'0 0.0
2018-Jan-18 16:29N 59°53' E 030°12'0 0.0
2018-Jan-18 15:59N 59°53' E 030°12'0 0.0
2018-Jan-18 15:30N 59°53' E 030°12'1 1.8
2018-Jan-18 15:00N 59°53' E 030°11'4 8.2
2018-Jan-18 14:30N 59°55' E 030°03'511.1
2018-Jan-18 14:00N 59°57' E 029°53'5 9.7
2018-Jan-18 13:30N 59°59' E 029°44'1 2.4
2018-Jan-18 13:00N 59°58' E 029°45'2 4.7
2018-Jan-18 12:30N 59°56' E 029°41'0 0.0
2018-Jan-18 11:49N 59°56' E 029°41'0 0.0
2018-Jan-18 11:22N 59°56' E 029°41'0 0.0
2018-Jan-18 10:58N 59°56' E 029°41'0 0.0
2018-Jan-18 10:22N 59°56' E 029°41'0 0.0
2018-Jan-18 09:58N 59°56' E 029°41'0 0.0
2018-Jan-18 07:34N 59°56' E 029°41'0 0.0
2018-Jan-18 07:25N 59°56' E 029°41'0 0.0
2018-Jan-18 06:37N 59°56' E 029°41'0 0.0
2018-Jan-18 06:28N 59°56' E 029°41'0 0.0
2018-Jan-18 05:58N 59°56' E 029°41'0 0.0
2018-Jan-18 05:28N 59°56' E 029°41'0 0.0
2018-Jan-18 03:37N 59°56' E 029°41'0 0.1
2018-Jan-18 03:16N 59°56' E 029°41'0 0.0
2018-Jan-18 02:58N 59°56' E 029°41'0 0.0
2018-Jan-18 02:30N 59°56' E 029°41'1 2.3
2018-Jan-18 02:00N 59°57' E 029°44'3 6.3
2018-Jan-18 01:29N 59°60' E 029°40'5 9.3
2018-Jan-18 00:59N 60°01' E 029°32'11 9.1
2018-Jan-17 23:48N 60°02' E 029°10'  
2018-Jan-12 14:58N 53°32' E 009°57'0 0.0
2018-Jan-12 14:28N 53°32' E 009°57'0 0.0
2018-Jan-12 13:58N 53°32' E 009°57'0 0.0
2018-Jan-12 13:28N 53°32' E 009°57'0 0.3
2018-Jan-12 13:00N 53°32' E 009°57'2 3.7
2018-Jan-12 12:31N 53°30' E 009°56'0 0.3
2018-Jan-12 11:59N 53°30' E 009°56'0 0.0
2018-Jan-12 11:29N 53°30' E 009°56'0 0.0
2018-Jan-12 10:59N 53°30' E 009°56'  
Track history (hours):
 
Tides and Currents Weather Stations Pressure Air Temp Water Temp Dewpoint Dewpoint Depression Visibility Wind Speed Wind Dir Waves Ship Positions

Fesco Vladimir

Last reported at 2018-Jan-22 10:36 UTC. Time now 2018-Jan-22 13:49 UTC.
Position N 55°22' E 011°02'.

Length 184 m; draft 9.6 m.

Type: Ship (hazmat cat A). MMSI: 209777000.

Date/timePositionNaut miles runAvg speedWind from/ knotsBaromVisibWave heightAir tempDewpointWater temp
2018-Jan-22 10:36N 55°22' E 011°02'114.6
2018-Jan-22 10:30N 55°20' E 011°02'713.6
2018-Jan-22 10:00N 55°14' E 011°06'713.6
2018-Jan-22 09:30N 55°07' E 011°03'713.9
2018-Jan-22 09:00N 55°00' E 011°02'713.7
2018-Jan-22 08:31N 54°55' E 010°54'714.2
2018-Jan-22 08:01N 54°48' E 010°52'713.2
2018-Jan-22 07:30N 54°42' E 010°55'713.6
2018-Jan-22 07:00N 54°38' E 011°05'713.3
2018-Jan-22 06:30N 54°35' E 011°15'713.7
2018-Jan-22 06:00N 54°32' E 011°26'713.3
2018-Jan-22 05:30N 54°29' E 011°36'713.0
2018-Jan-22 05:00N 54°26' E 011°46'612.8
2018-Jan-22 04:30N 54°26' E 011°57'612.9
2018-Jan-22 04:00N 54°26' E 012°08'510.4
2018-Jan-22 03:30N 54°30' E 012°13'711.8
2018-Jan-22 02:56N 54°37' E 012°17'5812.1
2018-Jan-21 22:11N 55°01' E 013°48'312.2
2018-Jan-21 21:58N 55°02' E 013°52'812.4
2018-Jan-21 21:18N 55°05' E 014°06'412.7
2018-Jan-21 20:59N 55°08' E 014°10'612.9
2018-Jan-21 20:30N 55°13' E 014°17'612.9
2018-Jan-21 20:00N 55°18' E 014°24'612.8
2018-Jan-21 19:30N 55°23' E 014°31'712.6
2018-Jan-21 18:58N 55°28' E 014°40'613.0
2018-Jan-21 18:30N 55°31' E 014°49'612.9
2018-Jan-21 18:00N 55°34' E 014°59'612.8
2018-Jan-21 17:30N 55°37' E 015°08'712.8
2018-Jan-21 16:59N 55°40' E 015°19'612.9
2018-Jan-21 16:30N 55°44' E 015°28'613.0
2018-Jan-21 16:00N 55°47' E 015°38'613.0
2018-Jan-21 15:30N 55°50' E 015°48'612.9
2018-Jan-21 15:00N 55°53' E 015°58'612.9
2018-Jan-21 14:30N 55°57' E 016°08'612.9
2018-Jan-21 14:00N 55°60' E 016°18'713.2
2018-Jan-21 13:30N 56°03' E 016°28'713.4
2018-Jan-21 13:00N 56°06' E 016°39'713.3
2018-Jan-21 12:30N 56°10' E 016°49'713.1
2018-Jan-21 12:00N 56°14' E 016°58'27412.9
2018-Jan-20 14:43N 59°34' E 022°51'313.4
2018-Jan-20 14:30N 59°35' E 022°56'713.3
2018-Jan-20 14:00N 59°37' E 023°09'713.6
2018-Jan-20 13:30N 59°38' E 023°22'713.8
2018-Jan-20 13:00N 59°40' E 023°35'713.4
2018-Jan-20 12:30N 59°42' E 023°48'713.3
2018-Jan-20 12:00N 59°44' E 024°01'713.3
2018-Jan-20 11:30N 59°45' E 024°13'713.4
2018-Jan-20 11:01N 59°47' E 024°26'713.5
2018-Jan-20 10:30N 59°48' E 024°39'713.5
2018-Jan-20 10:01N 59°50' E 024°52'713.4
2018-Jan-20 09:30N 59°51' E 025°05'3213.4
2018-Jan-20 07:07N 59°58' E 026°08'213.9
2018-Jan-20 06:58N 59°58' E 026°12'613.4
2018-Jan-20 06:30N 59°60' E 026°24'713.2
2018-Jan-20 06:00N 60°01' E 026°37'713.3
2018-Jan-20 05:30N 60°00' E 026°50'713.2
2018-Jan-20 05:00N 59°59' E 027°03'713.5
2018-Jan-20 04:30N 60°03' E 027°14'713.5
2018-Jan-20 04:00N 60°07' E 027°26'713.1
2018-Jan-20 03:30N 60°10' E 027°37'612.2
2018-Jan-20 03:00N 60°12' E 027°49'713.2
2018-Jan-20 02:30N 60°10' E 028°02'613.0
2018-Jan-20 02:00N 60°08' E 028°14'612.8
2018-Jan-20 01:30N 60°05' E 028°25'612.6
2018-Jan-20 01:00N 60°03' E 028°37'713.1
2018-Jan-20 00:30N 60°03' E 028°50'713.2
2018-Jan-20 00:00N 60°02' E 029°04'713.5
2018-Jan-19 23:28N 60°02' E 029°18'511.6
2018-Jan-19 23:00N 60°02' E 029°29'611.3
2018-Jan-19 22:30N 59°60' E 029°40'5 9.2
2018-Jan-19 22:00N 59°58' E 029°48'611.5
2018-Jan-19 21:30N 59°56' E 029°58'510.6
2018-Jan-19 21:00N 59°54' E 030°08'2 4.7
2018-Jan-19 20:29N 59°52' E 030°12'0 0.0
2018-Jan-19 19:58N 59°52' E 030°12'0 0.0
2018-Jan-19 19:29N 59°52' E 030°12'0 0.0
2018-Jan-19 18:58N 59°52' E 030°12'0 0.0
2018-Jan-19 18:28N 59°52' E 030°12'0 0.0
2018-Jan-19 17:58N 59°52' E 030°12'0 0.0
2018-Jan-19 17:23N 59°52' E 030°12'0 0.0
2018-Jan-19 16:56N 59°52' E 030°12'0 0.0
2018-Jan-19 16:28N 59°52' E 030°12'0 0.0
2018-Jan-19 15:58N 59°52' E 030°12'0 0.0
2018-Jan-19 15:28N 59°52' E 030°12'0 0.0
2018-Jan-19 14:58N 59°52' E 030°12'0 0.0
2018-Jan-19 14:28N 59°52' E 030°12'0 0.0
2018-Jan-19 13:59N 59°52' E 030°12'0 0.0
2018-Jan-19 13:25N 59°52' E 030°12'0 0.0
2018-Jan-19 12:58N 59°52' E 030°12'0 0.0
2018-Jan-19 12:28N 59°52' E 030°12'0 0.0
2018-Jan-19 12:00N 59°52' E 030°12'0 0.0
2018-Jan-19 11:30N 59°52' E 030°12'0 0.0
2018-Jan-19 11:00N 59°52' E 030°12'0 0.0
2018-Jan-19 10:30N 59°52' E 030°12'0 0.0
2018-Jan-19 10:00N 59°52' E 030°12'0 1.0
2018-Jan-19 09:30N 59°53' E 030°12'0 0.1
2018-Jan-19 08:58N 59°53' E 030°12'0 0.0
2018-Jan-19 08:28N 59°53' E 030°12'0 0.0
2018-Jan-19 07:58N 59°53' E 030°12'0 0.0
2018-Jan-19 07:28N 59°53' E 030°12'0 0.0
2018-Jan-19 06:58N 59°53' E 030°12'0 0.0
2018-Jan-19 06:28N 59°53' E 030°12'0 0.0
2018-Jan-19 05:58N 59°53' E 030°12'0 0.0
2018-Jan-19 05:28N 59°53' E 030°12'0 0.0
2018-Jan-19 04:58N 59°53' E 030°12'0 0.0
2018-Jan-19 04:28N 59°53' E 030°12'0 0.0
2018-Jan-19 03:58N 59°53' E 030°12'0 0.0
2018-Jan-19 03:28N 59°53' E 030°12'0 0.0
2018-Jan-19 02:58N 59°53' E 030°12'0 0.0
2018-Jan-19 02:28N 59°53' E 030°12'0 0.0
2018-Jan-19 01:58N 59°53' E 030°12'0 0.0
2018-Jan-19 01:28N 59°53' E 030°12'0 0.0
2018-Jan-19 00:58N 59°53' E 030°12'0 0.0
2018-Jan-19 00:28N 59°53' E 030°12'0 0.0
2018-Jan-18 23:58N 59°53' E 030°12'0 0.0
2018-Jan-18 23:28N 59°53' E 030°12'0 0.0
2018-Jan-18 22:58N 59°53' E 030°12'0 0.0
2018-Jan-18 22:29N 59°53' E 030°12'0 0.0
2018-Jan-18 21:59N 59°53' E 030°12'0 0.0
2018-Jan-18 21:29N 59°53' E 030°12'0 0.0
2018-Jan-18 20:59N 59°53' E 030°12'0 0.0
2018-Jan-18 20:29N 59°53' E 030°12'0 0.0
2018-Jan-18 19:59N 59°53' E 030°12'0 0.0
2018-Jan-18 19:29N 59°53' E 030°12'0 0.0
2018-Jan-18 18:59N 59°53' E 030°12'0 0.0
2018-Jan-18 18:29N 59°53' E 030°12'0 0.0
2018-Jan-18 17:59N 59°53' E 030°12'0 0.0
2018-Jan-18 17:29N 59°53' E 030°12'0 0.0
2018-Jan-18 16:59N 59°53' E 030°12'0 0.0
2018-Jan-18 16:29N 59°53' E 030°12'0 0.0
2018-Jan-18 15:59N 59°53' E 030°12'0 0.0
2018-Jan-18 15:30N 59°53' E 030°12'1 1.8
2018-Jan-18 15:00N 59°53' E 030°11'4 8.2
2018-Jan-18 14:30N 59°55' E 030°03'511.1
2018-Jan-18 14:00N 59°57' E 029°53'5 9.7
2018-Jan-18 13:30N 59°59' E 029°44'1 2.4
2018-Jan-18 13:00N 59°58' E 029°45'2 4.7
2018-Jan-18 12:30N 59°56' E 029°41'0 0.0
2018-Jan-18 11:49N 59°56' E 029°41'0 0.0
2018-Jan-18 11:22N 59°56' E 029°41'0 0.0
2018-Jan-18 10:58N 59°56' E 029°41'0 0.0
2018-Jan-18 10:22N 59°56' E 029°41'0 0.0
2018-Jan-18 09:58N 59°56' E 029°41'0 0.0
2018-Jan-18 07:34N 59°56' E 029°41'0 0.0
2018-Jan-18 07:25N 59°56' E 029°41'0 0.0
2018-Jan-18 06:37N 59°56' E 029°41'0 0.0
2018-Jan-18 06:28N 59°56' E 029°41'0 0.0
2018-Jan-18 05:58N 59°56' E 029°41'0 0.0
2018-Jan-18 05:28N 59°56' E 029°41'0 0.0
2018-Jan-18 03:37N 59°56' E 029°41'0 0.1
2018-Jan-18 03:16N 59°56' E 029°41'0 0.0
2018-Jan-18 02:58N 59°56' E 029°41'0 0.0
2018-Jan-18 02:30N 59°56' E 029°41'1 2.3
2018-Jan-18 02:00N 59°57' E 029°44'3 6.3
2018-Jan-18 01:29N 59°60' E 029°40'5 9.3
2018-Jan-18 00:59N 60°01' E 029°32'11 9.1
2018-Jan-17 23:48N 60°02' E 029°10'  
2018-Jan-12 14:58N 53°32' E 009°57'0 0.0
2018-Jan-12 14:28N 53°32' E 009°57'0 0.0
2018-Jan-12 13:58N 53°32' E 009°57'0 0.0
2018-Jan-12 13:28N 53°32' E 009°57'0 0.3
2018-Jan-12 13:00N 53°32' E 009°57'2 3.7
2018-Jan-12 12:31N 53°30' E 009°56'0 0.3
2018-Jan-12 11:59N 53°30' E 009°56'0 0.0
2018-Jan-12 11:29N 53°30' E 009°56'0 0.0
2018-Jan-12 10:59N 53°30' E 009°56'  

Dump ship's entire track history